This is the latest recevied weather packets stored in our database for station/object N8HKU-5. If no packets are shown the sender has not sent any weather packets the latest 10 day(s).
| Time | Temp. | Humidity | Pressure | Rain* | Wind** | Luminosity | Snow |
|---|---|---|---|---|---|---|---|
| 1777825356 | 13.33° C | 46% | 1011 hPa | 0 mm | - | - | - |
| 1777824754 | 13.33° C | 46% | 1011 hPa | 0 mm | - | - | - |
| 1777824154 | 13.33° C | 44% | 1011.2 hPa | 0 mm | - | - | - |
| 1777823554 | 13.33° C | 45% | 1011.3 hPa | 0 mm | - | - | - |
| 1777822954 | 13.33° C | 45% | 1011.4 hPa | 0 mm | - | - | - |
| 1777822354 | 13.89° C | 42% | 1011.4 hPa | 0 mm | - | - | - |
| 1777821755 | 15° C | 41% | 1011.3 hPa | 0 mm | - | - | - |
| 1777821154 | 14.44° C | 44% | 1011.3 hPa | 0 mm | - | - | - |
| 1777820554 | 13.89° C | 45% | 1011.3 hPa | 0 mm | - | - | - |
| 1777819954 | 13.89° C | 43% | 1011.2 hPa | 0 mm | - | - | - |
| 1777819355 | 13.33° C | 46% | 1011.3 hPa | 0 mm | - | - | - |
| 1777818754 | 13.33° C | 45% | 1011.3 hPa | 0 mm | - | - | - |
| 1777818154 | 12.22° C | 52% | 1011.5 hPa | 0 mm | - | - | - |
| 1777817554 | 11.11° C | 57% | 1011.7 hPa | 0 mm | - | - | - |
| 1777816954 | 10.56° C | 57% | 1011.7 hPa | 0 mm | - | - | - |
| 1777816354 | 10° C | 57% | 1011.7 hPa | 0 mm | - | - | - |
| 1777815154 | 8.89° C | 62% | 1011.8 hPa | 0 mm | - | - | - |
| 1777814554 | 8.33° C | 61% | 1011.9 hPa | 0 mm | - | - | - |
| 1777813954 | 7.78° C | 62% | 1011.9 hPa | 0 mm | - | - | - |
| 1777813354 | 7.22° C | 64% | 1011.9 hPa | 0 mm | - | - | - |
| 1777812754 | 6.67° C | 66% | 1012 hPa | 0 mm | - | - | - |
| 1777812154 | 6.11° C | 67% | 1011.9 hPa | 0 mm | - | - | - |
| 1777811554 | 5.56° C | 67% | 1011.9 hPa | 0 mm | - | - | - |
| 1777810954 | 5° C | 70% | 1011.9 hPa | 0 mm | - | - | - |
| 1777810354 | 4.44° C | 71% | 1011.9 hPa | 0 mm | - | - | - |
* Rain latest hour (hover to see other rain measurements)
** Current wind speed in m/s (hover to see current wind gust speed)